Time;durP1;ratioP1;P1;durP2;ratioP2;P2;SDS_P1;SDS_P2;PMS_P1;PMS_P2;Temp;Humidity;BMP_temperature;BMP_pressure;BME280_temperature;BME280_humidity;BME280_pressure;Samples;Min_cycle;Max_cycle;Signal;HPM_P1;HPM_P2
2021/04/28 00:01:06;;;;;;;4.35;1.00;;;8.30;99.90;;;;;;13095766;22;20021;-45
2021/04/28 00:06:07;;;;;;;4.13;1.25;;;8.30;99.90;;;;;;13095824;22;20090;-44
2021/04/28 00:11:08;;;;;;;6.97;1.10;;;8.20;99.90;;;;;;13068875;22;20007;-45
2021/04/28 00:16:09;;;;;;;2.80;1.23;;;8.00;99.90;;;;;;13095088;22;20026;-45
2021/04/28 00:21:09;;;;;;;5.78;1.10;;;7.90;99.90;;;;;;13094580;22;20010;-45
2021/04/28 00:26:14;;;;;;;2.55;0.85;;;7.80;99.90;;;;;;13095640;22;20007;-45
2021/04/28 00:31:14;;;;;;;3.30;0.98;;;7.80;99.90;;;;;;13094117;22;20014;-45
2021/04/28 00:36:15;;;;;;;2.95;1.38;;;7.70;99.90;;;;;;13095471;22;20015;-45
2021/04/28 00:41:16;;;;;;;2.60;1.00;;;7.70;99.90;;;;;;13094202;22;20018;-45
2021/04/28 00:46:17;;;;;;;4.28;1.13;;;7.60;99.90;;;;;;13095263;22;20402;-44
2021/04/28 00:51:18;;;;;;;2.65;1.00;;;7.60;99.90;;;;;;13094011;22;20037;-45
2021/04/28 00:56:19;;;;;;;2.92;1.33;;;7.50;99.90;;;;;;13095409;22;20449;-45
2021/04/28 01:01:20;;;;;;;2.78;1.50;;;7.50;99.90;;;;;;13093936;22;20013;-45
2021/04/28 01:06:21;;;;;;;4.13;1.25;;;7.40;99.90;;;;;;13092370;22;20092;-45
2021/04/28 01:11:21;;;;;;;3.00;1.25;;;7.40;99.90;;;;;;13094491;22;20076;-44
2021/04/28 01:16:23;;;;;;;3.15;1.30;;;7.40;99.90;;;;;;13096511;22;20015;-44
2021/04/28 01:21:24;;;;;;;3.28;1.13;;;7.30;99.90;;;;;;13091829;22;20038;-45
2021/04/28 01:26:28;;;;;;;2.50;1.25;;;7.30;99.90;;;;;;13094137;22;20026;-45
2021/04/28 01:31:32;;;;;;;3.38;1.38;;;7.30;99.90;;;;;;13092230;22;20014;-45
2021/04/28 01:36:37;;;;;;;2.90;1.15;;;7.20;99.90;;;;;;13096289;22;20106;-45
2021/04/28 01:41:41;;;;;;;2.33;1.10;;;7.10;99.90;;;;;;13093322;22;20412;-44
2021/04/28 01:46:42;;;;;;;2.97;1.30;;;7.20;99.90;;;;;;13092148;22;20073;-44
2021/04/28 01:51:44;;;;;;;3.22;1.15;;;7.10;99.90;;;;;;13095452;22;20057;-44
2021/04/28 01:56:47;;;;;;;3.75;1.27;;;7.00;99.90;;;;;;13095494;22;20018;-44
2021/04/28 02:01:51;;;;;;;2.63;1.23;;;7.00;99.90;;;;;;13095950;22;20021;-44
2021/04/28 02:06:53;;;;;;;4.18;1.27;;;6.90;99.90;;;;;;13097090;22;20017;-44
2021/04/28 02:11:54;;;;;;;4.65;2.13;;;6.80;99.90;;;;;;13092218;22;20450;-45
2021/04/28 02:16:57;;;;;;;2.65;1.25;;;6.80;99.90;;;;;;13094320;22;20011;-45
2021/04/28 02:21:58;;;;;;;3.58;1.52;;;6.70;99.90;;;;;;13075596;22;20019;-44
2021/04/28 02:26:59;;;;;;;5.97;2.70;;;6.60;99.90;;;;;;13093124;22;20350;-44
2021/04/28 02:32:01;;;;;;;7.57;3.58;;;6.60;99.90;;;;;;13074557;22;20034;-44
2021/04/28 02:37:02;;;;;;;9.18;3.80;;;6.50;99.90;;;;;;13089058;22;20065;-44
2021/04/28 02:42:04;;;;;;;7.28;2.35;;;6.50;99.90;;;;;;13092447;22;20014;-44
2021/04/28 02:47:07;;;;;;;7.90;3.10;;;6.50;99.90;;;;;;13079843;22;20503;-44
2021/04/28 02:52:08;;;;;;;6.78;2.90;;;6.40;99.90;;;;;;13092209;22;20080;-44
2021/04/28 02:57:11;;;;;;;14.07;2.47;;;6.50;99.90;;;;;;13089672;22;20019;-44
2021/04/28 03:02:12;;;;;;;7.00;3.90;;;6.40;99.90;;;;;;13094395;22;20093;-44
2021/04/28 03:07:14;;;;;;;6.68;2.78;;;6.30;99.90;;;;;;13091350;22;20094;-44
2021/04/28 03:12:16;;;;;;;3.97;1.95;;;6.30;99.90;;;;;;13090799;22;20037;-44
2021/04/28 03:17:16;;;;;;;8.38;2.45;;;6.20;99.90;;;;;;13093600;22;20002;-44
2021/04/28 03:22:19;;;;;;;3.55;1.42;;;6.20;99.90;;;;;;13091467;22;20018;-44
2021/04/28 03:27:20;;;;;;;3.55;1.70;;;6.20;99.90;;;;;;13098488;22;20011;-45
2021/04/28 03:32:21;;;;;;;6.88;2.05;;;6.10;99.90;;;;;;13097610;22;20377;-44
2021/04/28 03:37:22;;;;;;;3.58;1.52;;;6.10;99.90;;;;;;13098686;22;20030;-44
2021/04/28 03:42:23;;;;;;;3.92;1.75;;;6.10;99.90;;;;;;13096000;22;20080;-45
2021/04/28 03:47:24;;;;;;;3.72;1.20;;;5.90;99.90;;;;;;13098964;22;20029;-44
2021/04/28 03:52:25;;;;;;;3.75;1.30;;;5.80;99.90;;;;;;13099606;22;20028;-45
2021/04/28 03:57:25;;;;;;;4.70;1.38;;;5.90;99.90;;;;;;13099767;22;20337;-44
2021/04/28 04:02:26;;;;;;;2.25;1.10;;;5.90;99.90;;;;;;13100522;22;20049;-44
2021/04/28 04:07:27;;;;;;;4.03;1.58;;;5.80;99.90;;;;;;13102485;22;20331;-45
2021/04/28 04:12:28;;;;;;;3.33;1.75;;;5.80;99.90;;;;;;13074245;22;20308;-44
2021/04/28 04:17:29;;;;;;;3.20;1.00;;;5.70;99.90;;;;;;13100932;22;20018;-44
2021/04/28 04:22:29;;;;;;;3.38;1.20;;;5.60;99.90;;;;;;13098442;22;20022;-45
2021/04/28 04:27:30;;;;;;;2.38;1.20;;;5.50;99.90;;;;;;13077340;22;20015;-44
2021/04/28 04:32:31;;;;;;;4.90;1.70;;;5.50;99.90;;;;;;13099394;22;20626;-44
2021/04/28 04:37:31;;;;;;;5.32;1.60;;;5.50;99.90;;;;;;13097690;22;20030;-45
2021/04/28 04:42:32;;;;;;;2.60;1.30;;;5.50;99.90;;;;;;13101087;22;20011;-44
2021/04/28 04:47:33;;;;;;;4.63;1.98;;;5.40;99.90;;;;;;13098621;22;20266;-44
2021/04/28 04:52:33;;;;;;;3.63;2.25;;;5.40;99.90;;;;;;13099825;22;20446;-44
2021/04/28 04:57:35;;;;;;;5.28;1.75;;;5.50;99.90;;;;;;13100165;22;20029;-44
2021/04/28 05:02:36;;;;;;;2.85;1.35;;;5.50;99.90;;;;;;13100931;22;20445;-44
2021/04/28 05:07:37;;;;;;;3.67;1.67;;;5.50;99.90;;;;;;13099498;22;20114;-44
2021/04/28 05:12:38;;;;;;;4.72;1.30;;;5.60;99.90;;;;;;13072865;22;20011;-44
2021/04/28 05:17:38;;;;;;;3.22;1.38;;;5.60;99.90;;;;;;13102227;22;20019;-44
2021/04/28 05:22:39;;;;;;;4.32;1.70;;;5.60;99.90;;;;;;13098405;22;20106;-44
2021/04/28 05:27:40;;;;;;;6.00;1.52;;;5.60;99.90;;;;;;13090277;22;20026;-44
2021/04/28 05:32:41;;;;;;;2.03;1.00;;;5.80;99.90;;;;;;13088209;22;20089;-44
2021/04/28 05:37:41;;;;;;;5.85;1.38;;;6.00;99.90;;;;;;13092640;22;20471;-44
2021/04/28 05:42:42;;;;;;;2.47;1.60;;;6.20;99.90;;;;;;13092040;22;20014;-44
2021/04/28 05:47:44;;;;;;;4.28;1.60;;;6.60;99.90;;;;;;13095441;22;20022;-44
2021/04/28 05:52:45;;;;;;;3.13;1.20;;;6.90;99.90;;;;;;13066214;22;20017;-44
2021/04/28 05:57:46;;;;;;;2.72;1.30;;;7.20;99.90;;;;;;13093305;22;20345;-44
2021/04/28 06:02:46;;;;;;;3.88;1.17;;;7.70;99.90;;;;;;13093801;22;20018;-44
2021/04/28 06:07:47;;;;;;;3.75;1.30;;;7.80;99.90;;;;;;13094735;22;20010;-44
2021/04/28 06:12:48;;;;;;;4.72;1.42;;;7.90;99.90;;;;;;13093843;22;20486;-45
2021/04/28 06:17:49;;;;;;;5.53;1.35;;;8.00;99.90;;;;;;13092589;22;20037;-44
2021/04/28 06:22:49;;;;;;;4.95;1.25;;;8.10;99.90;;;;;;13091941;22;20351;-44
2021/04/28 06:27:50;;;;;;;3.38;1.40;;;8.30;99.90;;;;;;13093029;22;20493;-44
2021/04/28 06:32:51;;;;;;;2.83;1.40;;;8.50;99.90;;;;;;13095351;22;20075;-44
2021/04/28 06:37:51;;;;;;;3.35;1.58;;;8.70;99.90;;;;;;13094744;22;20019;-44
2021/04/28 06:42:52;;;;;;;2.65;1.38;;;8.90;99.90;;;;;;13093792;22;20007;-44
2021/04/28 06:47:53;;;;;;;2.35;1.33;;;9.10;99.90;;;;;;13094881;22;20439;-44
2021/04/28 06:52:54;;;;;;;4.28;2.05;;;9.40;99.90;;;;;;13093795;22;20007;-44
2021/04/28 06:57:56;;;;;;;3.15;1.33;;;9.70;99.90;;;;;;13095330;22;20019;-44
2021/04/28 07:02:57;;;;;;;3.47;1.60;;;10.00;99.90;;;;;;13095113;22;20922;-44
2021/04/28 07:07:58;;;;;;;3.88;1.60;;;10.10;99.90;;;;;;13094795;22;20072;-44
2021/04/28 07:12:59;;;;;;;3.40;1.88;;;10.20;99.90;;;;;;13093276;22;20355;-44
2021/04/28 07:18:00;;;;;;;4.20;1.77;;;10.30;99.90;;;;;;13096475;22;20443;-44
2021/04/28 07:23:01;;;;;;;3.20;1.85;;;10.20;99.90;;;;;;13096826;22;20006;-45
2021/04/28 07:28:02;;;;;;;3.72;1.42;;;10.10;99.90;;;;;;13100449;22;20007;-45
2021/04/28 07:33:04;;;;;;;3.85;1.50;;;10.20;99.90;;;;;;13104192;22;20011;-45
2021/04/28 07:38:05;;;;;;;4.50;1.95;;;10.30;99.90;;;;;;13092184;22;20023;-45
2021/04/28 07:43:06;;;;;;;3.38;1.45;;;10.40;99.90;;;;;;13106369;22;20007;-45
2021/04/28 07:48:08;;;;;;;9.32;2.25;;;10.60;99.90;;;;;;13105031;22;20488;-45
2021/04/28 07:53:09;;;;;;;7.32;2.00;;;10.90;99.90;;;;;;13104826;22;20018;-45
2021/04/28 07:58:10;;;;;;;5.20;1.77;;;11.20;99.90;;;;;;13102802;22;20015;-45
2021/04/28 08:03:11;;;;;;;3.05;1.65;;;11.40;99.90;;;;;;13076120;22;20253;-45
2021/04/28 08:08:12;;;;;;;5.95;1.88;;;11.50;99.90;;;;;;13104728;22;20010;-45
2021/04/28 08:13:13;;;;;;;4.15;1.45;;;11.60;99.90;;;;;;13102626;22;20454;-45
2021/04/28 08:18:14;;;;;;;4.50;1.65;;;11.80;99.10;;;;;;13105590;22;20869;-45
2021/04/28 08:23:15;;;;;;;4.95;1.80;;;12.00;98.70;;;;;;13079175;22;20312;-45
2021/04/28 08:28:18;;;;;;;3.55;1.70;;;12.20;97.00;;;;;;13095524;22;20085;-45
2021/04/28 08:33:19;;;;;;;3.92;1.58;;;12.50;94.00;;;;;;13100431;22;20138;-45
2021/04/28 08:38:19;;;;;;;3.58;1.88;;;12.50;94.30;;;;;;13097219;22;20389;-45
2021/04/28 08:43:22;;;;;;;6.28;2.20;;;12.70;92.30;;;;;;13098571;22;20063;-45
2021/04/28 08:48:24;;;;;;;3.42;1.80;;;12.70;91.20;;;;;;13098636;22;20003;-45
2021/04/28 08:53:28;;;;;;;4.07;1.90;;;12.90;90.00;;;;;;13098472;22;20011;-45
2021/04/28 08:58:29;;;;;;;4.97;1.92;;;13.40;88.50;;;;;;13097233;22;20015;-45
2021/04/28 09:03:44;;;;;;;5.15;1.60;;;13.80;87.90;;;;;;13100061;22;20056;-45
2021/04/28 09:08:48;;;;;;;4.85;1.75;;;14.00;86.60;;;;;;13101175;22;20324;-45
2021/04/28 09:14:04;;;;;;;5.88;2.10;;;14.40;80.80;;;;;;13099049;22;20003;-45
2021/04/28 09:19:06;;;;;;;4.07;1.83;;;14.60;80.60;;;;;;13098850;22;20015;-46
2021/04/28 09:24:21;;;;;;;3.05;1.52;;;14.70;77.70;;;;;;13100300;22;20045;-45
2021/04/28 09:29:28;;;;;;;5.05;1.85;;;15.00;71.50;;;;;;13101929;22;20014;-46
2021/04/28 09:34:33;;;;;;;4.15;1.85;;;15.10;72.20;;;;;;13102236;22;20011;-45
2021/04/28 09:39:39;;;;;;;4.70;1.83;;;15.00;70.50;;;;;;13103833;22;20192;-45
2021/04/28 09:44:47;;;;;;;12.63;2.22;;;15.10;69.60;;;;;;13101923;22;20041;-45
2021/04/28 09:50:00;;;;;;;5.18;2.13;;;15.40;77.80;;;;;;13096917;22;20528;-46
2021/04/28 09:55:12;;;;;;;4.68;2.17;;;15.90;68.80;;;;;;13103450;22;20331;-45
2021/04/28 10:00:23;;;;;;;4.13;1.95;;;16.20;66.20;;;;;;13103647;22;20027;-46
2021/04/28 10:05:30;;;;;;;4.88;2.25;;;15.90;67.30;;;;;;13102040;22;20526;-45
2021/04/28 10:10:31;;;;;;;4.13;2.28;;;16.10;67.60;;;;;;13101033;22;20031;-46
2021/04/28 10:15:33;;;;;;;5.75;2.03;;;16.20;65.00;;;;;;13066190;22;20015;-46
2021/04/28 10:20:35;;;;;;;4.38;2.17;;;16.10;66.20;;;;;;13098742;22;20076;-45
2021/04/28 10:25:40;;;;;;;8.65;2.22;;;16.00;68.70;;;;;;13078786;22;20079;-45
2021/04/28 10:30:46;;;;;;;4.63;2.20;;;16.20;65.70;;;;;;13099275;22;20007;-46
2021/04/28 10:35:51;;;;;;;4.53;2.25;;;16.40;64.10;;;;;;13101837;22;20984;-46
2021/04/28 10:40:54;;;;;;;5.85;1.88;;;16.50;63.00;;;;;;13101951;22;20061;-46
2021/04/28 10:45:55;;;;;;;3.70;2.00;;;16.80;64.90;;;;;;13100386;22;20030;-46
2021/04/28 10:50:56;;;;;;;6.03;2.38;;;17.80;60.70;;;;;;13098661;22;20014;-46
2021/04/28 10:55:58;;;;;;;6.65;2.47;;;18.40;59.80;;;;;;13077093;22;20366;-46
2021/04/28 11:01:02;;;;;;;5.00;1.88;;;18.70;58.70;;;;;;13090959;22;20649;-46
2021/04/28 11:06:22;;;;;;;4.47;1.80;;;19.00;55.10;;;;;;13101166;22;20031;-46
2021/04/28 11:11:41;;;;;;;4.07;1.85;;;19.10;56.40;;;;;;13093108;22;20417;-46
2021/04/28 11:16:52;;;;;;;6.22;2.60;;;18.80;54.70;;;;;;13096423;22;20007;-46
2021/04/28 11:22:22;;;;;;;3.92;2.55;;;18.80;54.10;;;;;;13084857;22;20014;-46
2021/04/28 11:27:41;;;;;;;4.80;2.47;;;18.90;55.80;;;;;;13102288;22;20334;-46
2021/04/28 11:33:11;;;;;;;4.20;2.17;;;19.40;54.80;;;;;;13101101;22;20013;-46
2021/04/28 11:38:16;;;;;;;3.75;1.88;;;20.30;53.30;;;;;;13103210;22;20029;-46
2021/04/28 11:43:20;;;;;;;3.78;1.85;;;20.60;54.70;;;;;;13101830;22;20025;-46
2021/04/28 11:48:25;;;;;;;4.25;2.47;;;20.60;52.20;;;;;;13098716;22;20014;-46
2021/04/28 11:53:30;;;;;;;5.53;2.58;;;20.20;52.00;;;;;;13082976;22;20080;-46
2021/04/28 11:58:33;;;;;;;7.18;2.83;;;19.80;51.30;;;;;;13101993;22;20083;-46
2021/04/28 12:05:06;;;;;;;8.10;2.42;;;19.60;53.10;;;;;;13093627;22;20015;-46
2021/04/28 12:12:08;;;;;;;3.33;1.73;;;19.80;51.30;;;;;;13093683;22;20010;-46
2021/04/28 12:26:13;;;;;;;;;;;;;;;;;;;;;
2021/04/28 12:38:44;;;;;;;5.35;2.47;;;21.20;48.30;;;;;;13049874;22;20034;-46
2021/04/28 12:43:46;;;;;;;5.47;2.45;;;20.40;50.30;;;;;;13098801;22;20014;-46
2021/04/28 12:48:55;;;;;;;5.40;2.78;;;19.60;53.30;;;;;;13100682;22;20010;-46
2021/04/28 12:53:57;;;;;;;6.10;2.22;;;18.80;53.40;;;;;;13101927;22;20393;-46
2021/04/28 12:58:58;;;;;;;6.28;2.30;;;18.20;55.50;;;;;;13098872;22;20034;-46
2021/04/28 13:03:58;;;;;;;4.90;2.70;;;18.20;57.80;;;;;;13097309;22;20046;-46
2021/04/28 13:08:59;;;;;;;7.28;3.00;;;18.40;59.70;;;;;;13100644;22;20007;-46
2021/04/28 13:14:01;;;;;;;10.70;4.30;;;18.30;61.70;;;;;;13098197;22;20007;-46
2021/04/28 13:19:09;;;;;;;6.35;2.53;;;18.30;68.40;;;;;;13098373;22;20014;-46
2021/04/28 13:24:35;;;;;;;5.22;2.60;;;18.10;68.60;;;;;;13100321;22;20014;-46
2021/04/28 13:29:49;;;;;;;7.53;2.88;;;17.80;70.80;;;;;;13099962;22;20442;-45
2021/04/28 13:34:50;;;;;;;4.50;2.00;;;17.60;73.70;;;;;;13096790;22;20476;-46
2021/04/28 13:39:51;;;;;;;7.60;2.95;;;17.30;74.40;;;;;;13100796;22;20022;-46
2021/04/28 13:44:51;;;;;;;6.80;2.95;;;17.30;75.10;;;;;;13098951;22;20580;-46
2021/04/28 13:49:52;;;;;;;3.83;2.00;;;17.30;77.20;;;;;;13068895;22;20014;-46
2021/04/28 13:54:53;;;;;;;9.00;2.75;;;17.50;75.40;;;;;;13098978;22;20439;-46
2021/04/28 13:59:53;;;;;;;6.55;2.50;;;17.60;74.70;;;;;;13094412;22;20351;-46
2021/04/28 14:04:54;;;;;;;6.78;2.40;;;17.40;75.80;;;;;;13096677;22;20015;-46
2021/04/28 14:09:58;;;;;;;3.95;2.22;;;17.20;78.50;;;;;;13098999;22;20006;-46
2021/04/28 14:14:58;;;;;;;5.82;2.33;;;16.80;77.50;;;;;;13100080;22;20006;-46
2021/04/28 14:19:59;;;;;;;4.40;2.10;;;16.70;78.80;;;;;;13070343;22;20011;-46
2021/04/28 14:25:05;;;;;;;5.07;2.22;;;16.70;80.00;;;;;;13098261;22;20431;-46
2021/04/28 14:30:07;;;;;;;5.13;2.10;;;16.60;75.20;;;;;;13100337;22;20037;-46
2021/04/28 14:35:08;;;;;;;6.80;2.13;;;16.30;80.40;;;;;;13096524;22;20018;-46
2021/04/28 14:40:10;;;;;;;4.35;2.33;;;16.10;79.40;;;;;;13103948;22;20023;-46
2021/04/28 14:45:11;;;;;;;5.72;2.47;;;15.90;81.30;;;;;;13079145;22;20011;-46
2021/04/28 14:50:13;;;;;;;6.47;2.35;;;15.70;85.40;;;;;;13077625;22;20011;-45
2021/04/28 14:55:14;;;;;;;4.60;2.15;;;15.60;87.30;;;;;;13101598;22;20485;-45
2021/04/28 15:00:17;;;;;;;5.47;2.20;;;15.50;92.10;;;;;;13103209;22;20023;-46
2021/04/28 15:05:17;;;;;;;5.82;3.03;;;15.50;91.40;;;;;;13103681;22;20015;-46
2021/04/28 15:10:18;;;;;;;4.93;2.58;;;15.60;91.10;;;;;;13075144;22;20007;-45
2021/04/28 15:15:19;;;;;;;3.35;1.92;;;15.40;90.50;;;;;;13073636;22;20512;-45
2021/04/28 15:20:20;;;;;;;8.32;2.42;;;15.50;91.00;;;;;;13103005;22;20450;-45
2021/04/28 15:25:21;;;;;;;7.82;2.92;;;15.50;91.60;;;;;;13102826;22;20010;-45
2021/04/28 15:30:22;;;;;;;5.85;2.72;;;15.40;90.00;;;;;;13095344;22;20131;-46
2021/04/28 15:35:22;;;;;;;5.47;2.88;;;15.60;86.70;;;;;;13095281;22;20017;-46
2021/04/28 15:40:24;;;;;;;4.88;2.05;;;15.80;88.70;;;;;;13097663;22;20033;-45
2021/04/28 15:45:25;;;;;;;6.80;2.45;;;16.10;91.00;;;;;;13095841;22;20062;-45
2021/04/28 15:50:29;;;;;;;6.22;2.90;;;16.40;90.80;;;;;;13097077;22;20390;-46
2021/04/28 15:55:30;;;;;;;4.90;2.55;;;16.30;90.00;;;;;;13102259;22;20022;-46
2021/04/28 16:00:32;;;;;;;4.95;2.75;;;16.40;90.10;;;;;;13054728;22;20722;-46
2021/04/28 16:05:33;;;;;;;5.35;1.92;;;16.10;90.50;;;;;;13100449;22;20482;-45
2021/04/28 16:10:33;;;;;;;5.80;2.65;;;16.10;90.20;;;;;;13099839;22;20015;-46
2021/04/28 16:15:35;;;;;;;5.03;2.40;;;16.00;92.20;;;;;;13102237;22;20015;-46
2021/04/28 16:20:35;;;;;;;6.35;1.90;;;15.90;92.70;;;;;;13072527;22;20022;-45
2021/04/28 16:25:36;;;;;;;5.50;2.75;;;15.70;92.90;;;;;;13099631;22;20014;-45
2021/04/28 16:30:37;;;;;;;5.90;2.80;;;15.50;94.40;;;;;;13075749;22;20084;-46
2021/04/28 16:35:38;;;;;;;5.28;2.65;;;15.40;95.20;;;;;;13052456;22;20081;-46
2021/04/28 16:40:41;;;;;;;10.98;2.28;;;15.30;95.40;;;;;;13095722;22;20094;-46
2021/04/28 16:45:42;;;;;;;5.88;2.78;;;15.00;97.40;;;;;;13088112;22;20042;-45
2021/04/28 16:50:43;;;;;;;4.82;2.17;;;14.90;98.30;;;;;;13098116;22;20022;-46
2021/04/28 16:55:44;;;;;;;5.95;2.53;;;14.70;98.20;;;;;;13097141;22;20010;-46
2021/04/28 17:00:45;;;;;;;4.47;1.83;;;14.70;97.90;;;;;;13089230;22;20027;-46
2021/04/28 17:05:46;;;;;;;10.15;2.80;;;14.80;97.00;;;;;;13087476;22;20025;-46
2021/04/28 17:10:47;;;;;;;7.25;3.30;;;14.70;97.50;;;;;;13094915;22;20023;-46
2021/04/28 17:15:48;;;;;;;6.80;2.45;;;14.80;97.90;;;;;;13098468;22;20435;-45
2021/04/28 17:20:48;;;;;;;10.25;2.40;;;14.70;99.70;;;;;;13097341;22;20438;-45
2021/04/28 17:25:49;;;;;;;5.88;2.55;;;14.70;99.90;;;;;;13094402;22;20458;-45
2021/04/28 17:30:50;;;;;;;8.20;2.35;;;14.60;99.90;;;;;;13092739;22;20010;-45
2021/04/28 17:35:50;;;;;;;6.57;2.42;;;14.60;99.90;;;;;;13096839;22;20067;-45
2021/04/28 17:40:51;;;;;;;7.47;2.22;;;14.70;99.90;;;;;;13096859;22;20375;-46
2021/04/28 17:45:52;;;;;;;4.85;2.67;;;14.50;99.90;;;;;;13074887;22;20006;-45
2021/04/28 17:50:53;;;;;;;5.30;2.60;;;14.50;99.90;;;;;;13085062;22;20085;-45
2021/04/28 17:55:54;;;;;;;10.60;3.00;;;14.30;99.90;;;;;;13081641;22;20029;-46
2021/04/28 18:00:56;;;;;;;6.97;3.40;;;14.30;99.90;;;;;;13067198;22;20094;-46
2021/04/28 18:05:59;;;;;;;5.18;2.92;;;14.20;99.90;;;;;;13074575;22;20002;-45
2021/04/28 18:11:00;;;;;;;5.45;2.97;;;14.10;99.90;;;;;;13053885;22;20652;-45
2021/04/28 18:16:02;;;;;;;5.22;2.33;;;14.00;99.90;;;;;;13076068;22;20003;-45
2021/04/28 18:21:02;;;;;;;5.75;2.85;;;13.90;99.90;;;;;;13077676;22;20013;-45
2021/04/28 18:26:05;;;;;;;7.15;3.60;;;13.80;99.90;;;;;;13077555;22;20014;-46
2021/04/28 18:31:06;;;;;;;7.22;2.50;;;13.70;99.90;;;;;;13073364;22;20014;-45
2021/04/28 18:36:07;;;;;;;7.20;2.60;;;13.60;99.90;;;;;;13083927;22;20007;-45
2021/04/28 18:41:08;;;;;;;6.00;2.63;;;13.50;99.90;;;;;;13080818;22;20018;-45
2021/04/28 18:46:09;;;;;;;4.53;2.28;;;13.50;99.90;;;;;;13080264;22;20101;-45
2021/04/28 18:51:10;;;;;;;4.20;2.05;;;13.40;99.90;;;;;;13075589;22;20064;-45
2021/04/28 18:56:11;;;;;;;5.55;2.58;;;13.40;99.90;;;;;;13079176;22;20496;-45
2021/04/28 19:01:12;;;;;;;7.90;3.25;;;13.30;99.90;;;;;;13078209;22;20018;-45
2021/04/28 19:06:13;;;;;;;8.70;3.72;;;13.30;99.90;;;;;;13080430;22;20093;-46
2021/04/28 19:11:14;;;;;;;4.95;1.98;;;13.30;99.90;;;;;;13040699;22;20307;-46
2021/04/28 19:16:15;;;;;;;5.93;2.03;;;13.30;99.90;;;;;;13083588;22;20026;-46
2021/04/28 19:21:15;;;;;;;8.68;2.25;;;13.20;99.90;;;;;;13076911;22;20229;-46
2021/04/28 19:26:16;;;;;;;6.20;2.50;;;13.10;99.90;;;;;;13079650;22;20536;-45
2021/04/28 19:31:17;;;;;;;5.80;2.83;;;13.00;99.90;;;;;;13085292;22;20160;-45
2021/04/28 19:36:18;;;;;;;6.38;2.40;;;13.00;99.90;;;;;;13086204;22;20079;-45
2021/04/28 19:41:18;;;;;;;4.03;2.28;;;13.00;99.90;;;;;;13085516;22;20034;-45
2021/04/28 19:46:20;;;;;;;5.78;2.70;;;13.00;99.90;;;;;;13085634;22;20346;-45
2021/04/28 19:51:21;;;;;;;7.03;2.28;;;12.80;99.90;;;;;;13084905;22;20033;-45
2021/04/28 19:56:21;;;;;;;6.07;2.38;;;12.80;99.90;;;;;;13091456;22;20369;-46
2021/04/28 20:01:22;;;;;;;7.78;2.63;;;12.90;99.90;;;;;;13094442;22;20029;-45
2021/04/28 20:06:23;;;;;;;6.35;2.78;;;12.80;99.90;;;;;;13096720;22;20007;-45
2021/04/28 20:11:23;;;;;;;3.97;2.20;;;12.90;99.90;;;;;;13096056;22;20014;-45
2021/04/28 20:16:26;;;;;;;8.73;2.53;;;12.80;99.90;;;;;;13092644;22;20033;-45
2021/04/28 20:21:26;;;;;;;4.32;1.98;;;12.80;99.90;;;;;;13092077;22;20202;-46
2021/04/28 20:26:27;;;;;;;8.07;2.28;;;12.70;99.90;;;;;;13090654;22;20542;-45
2021/04/28 20:31:28;;;;;;;7.72;2.65;;;12.70;99.90;;;;;;13092404;22;20015;-45
2021/04/28 20:36:28;;;;;;;5.15;2.47;;;12.60;99.90;;;;;;13091652;22;20015;-45
2021/04/28 20:41:29;;;;;;;5.10;2.38;;;12.60;99.90;;;;;;13091702;22;20022;-45
2021/04/28 20:46:31;;;;;;;5.93;2.10;;;12.50;99.90;;;;;;13093675;22;20058;-45
2021/04/28 20:51:32;;;;;;;5.35;1.50;;;12.30;99.90;;;;;;13094594;22;20014;-45
2021/04/28 20:56:33;;;;;;;8.57;1.80;;;12.20;99.90;;;;;;13092404;22;20403;-45
2021/04/28 21:01:35;;;;;;;6.28;2.30;;;11.90;99.90;;;;;;13088053;22;20089;-45
2021/04/28 21:06:46;;;;;;;4.20;2.47;;;11.90;99.90;;;;;;13095788;22;20022;-45
2021/04/28 21:11:46;;;;;;;3.85;2.08;;;11.90;99.90;;;;;;13093699;22;20007;-45
2021/04/28 21:16:47;;;;;;;8.40;2.95;;;11.80;99.90;;;;;;13090949;22;25464;-46
2021/04/28 21:21:48;;;;;;;7.70;2.88;;;11.80;99.90;;;;;;13093300;22;20043;-46
2021/04/28 21:26:50;;;;;;;3.47;1.95;;;11.70;99.90;;;;;;13088162;22;20568;-46
2021/04/28 21:31:55;;;;;;;5.63;2.03;;;11.60;99.90;;;;;;13096408;22;20015;-45
2021/04/28 21:36:55;;;;;;;5.88;2.20;;;11.50;99.90;;;;;;13070795;22;20010;-45
2021/04/28 21:41:56;;;;;;;7.00;2.45;;;11.50;99.90;;;;;;13096594;22;20015;-45
2021/04/28 21:46:57;;;;;;;7.32;2.58;;;11.40;99.90;;;;;;13098219;22;20007;-45
2021/04/28 21:51:58;;;;;;;6.18;2.55;;;11.30;99.90;;;;;;13098664;22;20015;-45
2021/04/28 21:56:58;;;;;;;4.00;1.73;;;11.30;99.90;;;;;;13098190;22;20006;-45
2021/04/28 22:02:01;;;;;;;7.88;2.38;;;11.30;99.90;;;;;;13099670;22;20116;-45
2021/04/28 22:07:02;;;;;;;4.22;1.75;;;11.30;99.90;;;;;;13098106;22;20152;-45
2021/04/28 22:12:04;;;;;;;6.70;2.55;;;11.30;99.90;;;;;;13097690;22;20487;-45
2021/04/28 22:17:04;;;;;;;6.22;2.55;;;11.20;99.90;;;;;;13098178;22;20321;-45
2021/04/28 22:22:05;;;;;;;5.68;2.30;;;11.20;99.90;;;;;;13097202;22;20006;-45
2021/04/28 22:27:07;;;;;;;3.80;2.13;;;11.10;99.90;;;;;;13097063;22;20013;-45
2021/04/28 22:32:07;;;;;;;4.95;1.77;;;11.00;99.90;;;;;;13093935;22;20450;-45
2021/04/28 22:37:08;;;;;;;7.53;2.40;;;10.90;99.90;;;;;;13091230;22;20049;-45
2021/04/28 22:42:09;;;;;;;4.30;1.45;;;11.00;99.90;;;;;;13088441;22;20106;-45
2021/04/28 22:47:10;;;;;;;6.30;2.35;;;10.90;99.90;;;;;;13092722;22;20015;-45
2021/04/28 22:52:11;;;;;;;4.38;2.05;;;10.80;99.90;;;;;;13092936;22;20019;-45
2021/04/28 22:57:11;;;;;;;5.40;2.72;;;10.70;99.90;;;;;;13093033;22;20438;-46
2021/04/28 23:02:12;;;;;;;5.40;1.92;;;10.70;99.90;;;;;;13095763;22;20017;-45
2021/04/28 23:07:13;;;;;;;5.28;2.20;;;10.60;99.90;;;;;;13063868;22;19999;-45
2021/04/28 23:12:14;;;;;;;3.70;1.80;;;10.60;99.90;;;;;;13091077;22;20788;-45
2021/04/28 23:17:15;;;;;;;5.57;2.08;;;10.60;99.90;;;;;;13093542;22;20078;-45
2021/04/28 23:22:16;;;;;;;5.53;2.00;;;10.60;99.90;;;;;;13092155;22;20384;-46
2021/04/28 23:27:16;;;;;;;7.93;2.95;;;10.60;99.90;;;;;;13092674;22;20042;-45
2021/04/28 23:32:17;;;;;;;4.97;2.17;;;10.50;99.90;;;;;;13091387;22;20017;-45
2021/04/28 23:37:18;;;;;;;6.15;2.33;;;10.50;99.90;;;;;;13092633;22;20045;-45
2021/04/28 23:42:19;;;;;;;6.85;2.42;;;10.40;99.90;;;;;;13088351;22;20037;-45
2021/04/28 23:47:20;;;;;;;4.18;1.98;;;10.50;99.90;;;;;;13091149;22;20010;-45
2021/04/28 23:52:21;;;;;;;4.82;1.88;;;10.40;99.90;;;;;;13091557;22;20015;-45
2021/04/28 23:57:21;;;;;;;6.25;2.42;;;10.40;99.90;;;;;;13091173;22;20079;-45
